createdAt,value
2019-03-10T00:01:13.900Z,8.40
2019-03-10T00:05:22.145Z,8.50
2019-03-10T00:09:30.486Z,8.40
2019-03-10T00:13:38.707Z,8.40
2019-03-10T00:17:46.957Z,8.40
2019-03-10T00:21:55.183Z,8.40
2019-03-10T00:26:03.422Z,8.40
2019-03-10T00:30:11.782Z,8.40
2019-03-10T00:34:20.001Z,8.40
2019-03-10T00:38:29.059Z,8.40
2019-03-10T00:42:54.455Z,8.30
2019-03-10T00:47:46.211Z,8.30
2019-03-10T00:52:00.176Z,8.30
2019-03-10T00:56:08.388Z,8.30
2019-03-10T01:00:17.635Z,8.30
2019-03-10T01:04:25.858Z,8.30
2019-03-10T01:08:34.078Z,8.30
2019-03-10T01:12:42.312Z,8.30
2019-03-10T01:16:50.543Z,8.20
2019-03-10T01:20:58.820Z,8.20
2019-03-10T01:25:07.364Z,8.20
2019-03-10T01:29:15.569Z,8.20
2019-03-10T01:35:36.813Z,8.20
2019-03-10T01:39:45.024Z,8.20
2019-03-10T01:43:53.234Z,8.20
2019-03-10T01:48:01.434Z,8.20
2019-03-10T01:52:09.743Z,8.10
2019-03-10T01:56:17.963Z,8.20
2019-03-10T02:00:26.194Z,8.20
2019-03-10T02:08:42.410Z,8.20
2019-03-10T02:12:50.649Z,8.20
2019-03-10T02:16:58.930Z,8.20
2019-03-10T02:21:07.134Z,8.20
2019-03-10T02:25:15.377Z,8.20
2019-03-10T02:29:23.582Z,8.20
2019-03-10T02:33:31.847Z,8.20
2019-03-10T02:37:40.035Z,8.20
2019-03-10T02:41:48.249Z,8.20
2019-03-10T02:45:56.466Z,8.20
2019-03-10T02:50:04.903Z,8.10
2019-03-10T02:54:13.118Z,8.10
2019-03-10T02:58:21.331Z,8.10
2019-03-10T03:02:29.584Z,8.10
2019-03-10T03:06:37.812Z,8.00
2019-03-10T03:10:46.071Z,8.00
2019-03-10T03:14:54.302Z,8.00
2019-03-10T03:19:02.521Z,8.00
2019-03-10T03:23:10.717Z,8.00
2019-03-10T03:27:19.841Z,8.00
2019-03-10T03:31:28.118Z,7.90
2019-03-10T03:35:46.910Z,7.90
2019-03-10T03:39:58.045Z,7.90
2019-03-10T03:44:06.258Z,7.90
2019-03-10T03:48:14.507Z,7.90
2019-03-10T03:52:22.702Z,7.90
2019-03-10T03:56:30.922Z,7.90
2019-03-10T04:00:39.200Z,7.90
2019-03-10T04:04:47.538Z,7.90
2019-03-10T04:08:55.855Z,7.90
2019-03-10T04:13:04.181Z,7.80
2019-03-10T04:17:12.439Z,7.90
2019-03-10T04:21:20.663Z,7.80
2019-03-10T04:25:28.924Z,7.80
2019-03-10T04:29:37.173Z,7.80
2019-03-10T04:33:45.403Z,7.80
2019-03-10T04:37:53.609Z,7.70
2019-03-10T04:42:01.839Z,7.70
2019-03-10T04:46:10.095Z,7.80
2019-03-10T04:50:18.330Z,7.70
2019-03-10T04:54:34.748Z,7.80
2019-03-10T04:58:46.984Z,7.80
2019-03-10T05:02:55.229Z,7.80
2019-03-10T05:07:03.431Z,7.80
2019-03-10T05:11:11.726Z,7.80
2019-03-10T05:15:20.020Z,7.90
2019-03-10T05:19:28.262Z,7.80
2019-03-10T05:23:38.776Z,7.90
2019-03-10T05:27:47.008Z,7.80
2019-03-10T05:31:55.270Z,7.80
2019-03-10T05:36:03.519Z,7.80
2019-03-10T05:40:11.766Z,7.80
2019-03-10T05:44:20.043Z,7.80
2019-03-10T05:48:28.337Z,7.80
2019-03-10T05:52:36.584Z,7.80
2019-03-10T05:56:44.857Z,7.80
2019-03-10T06:00:53.129Z,7.80
2019-03-10T06:05:01.371Z,7.80
2019-03-10T06:09:09.612Z,7.70
2019-03-10T06:13:17.892Z,7.70
2019-03-10T06:17:26.146Z,7.70
2019-03-10T06:25:42.444Z,7.60
2019-03-10T06:29:50.707Z,7.60
2019-03-10T06:33:59.001Z,7.60
2019-03-10T06:38:07.245Z,7.60
2019-03-10T06:42:15.503Z,7.50
2019-03-10T06:46:23.766Z,7.50
2019-03-10T06:50:32.029Z,7.50
2019-03-10T06:54:40.304Z,7.50
2019-03-10T07:02:56.658Z,7.50
2019-03-10T07:07:04.936Z,7.50
2019-03-10T07:11:13.193Z,7.50
2019-03-10T07:15:21.449Z,7.40
2019-03-10T07:19:29.767Z,7.40
2019-03-10T07:23:38.007Z,7.40
2019-03-10T07:28:50.247Z,7.40
2019-03-10T07:33:04.640Z,7.40
2019-03-10T07:41:34.592Z,7.30
2019-03-10T07:45:48.369Z,7.30
2019-03-10T07:50:05.678Z,7.30
2019-03-10T07:54:20.054Z,7.30
2019-03-10T07:58:33.506Z,7.30
2019-03-10T08:02:47.050Z,7.20
2019-03-10T08:07:04.629Z,7.30
2019-03-10T08:11:17.342Z,7.20
2019-03-10T08:17:38.200Z,7.30
2019-03-10T08:22:49.281Z,7.30
2019-03-10T08:27:02.773Z,7.30
2019-03-10T08:31:20.124Z,7.30
2019-03-10T08:35:34.590Z,7.40
2019-03-10T08:39:50.061Z,7.40
2019-03-10T08:44:05.407Z,7.50
2019-03-10T08:48:21.857Z,7.60
2019-03-10T08:52:36.197Z,7.60
2019-03-10T08:57:04.545Z,7.70
2019-03-10T09:01:24.109Z,7.70
2019-03-10T09:05:40.460Z,7.70
2019-03-10T09:11:57.425Z,7.80
2019-03-10T09:17:14.262Z,7.80
2019-03-10T09:23:31.711Z,7.80
2019-03-10T09:27:44.135Z,7.80
2019-03-10T09:31:56.602Z,7.80
2019-03-10T09:38:13.520Z,7.90
2019-03-10T09:42:45.306Z,7.90
2019-03-10T09:47:00.793Z,8.00
2019-03-10T09:51:19.168Z,8.00
2019-03-10T09:56:30.261Z,8.20
2019-03-10T10:00:42.708Z,8.20
2019-03-10T10:04:59.079Z,8.30
2019-03-10T10:09:11.654Z,8.40
2019-03-10T10:13:39.228Z,8.50
2019-03-10T10:17:53.683Z,8.70
2019-03-10T10:22:06.169Z,8.80
2019-03-10T10:26:18.629Z,8.90
2019-03-10T10:31:39.461Z,9.10
2019-03-10T10:36:07.900Z,9.50
2019-03-10T10:40:20.377Z,9.60
2019-03-10T10:44:33.736Z,9.70
2019-03-10T10:49:03.094Z,10.00
2019-03-10T10:53:15.576Z,10.30
2019-03-10T10:57:31.047Z,10.70
2019-03-10T11:01:46.568Z,11.10
2019-03-10T11:05:59.090Z,11.50
2019-03-10T11:10:30.592Z,11.80
2019-03-10T11:14:44.366Z,11.80
2019-03-10T11:23:25.762Z,11.90
2019-03-10T11:27:39.230Z,12.20
2019-03-10T11:31:52.887Z,12.10
2019-03-10T11:36:36.522Z,11.90
2019-03-10T11:40:54.882Z,11.60
2019-03-10T11:45:11.374Z,11.20
2019-03-10T11:49:24.743Z,11.20
2019-03-10T11:53:39.205Z,11.00
2019-03-10T11:57:54.627Z,11.10
2019-03-10T12:02:16.728Z,10.90
2019-03-10T12:06:31.576Z,10.80
2019-03-10T12:10:39.809Z,10.70
2019-03-10T12:14:48.047Z,10.70
2019-03-10T12:18:56.306Z,10.60
2019-03-10T12:23:04.598Z,10.50
2019-03-10T12:27:12.884Z,10.60
2019-03-10T12:31:21.219Z,10.60
2019-03-10T12:35:34.496Z,10.50
2019-03-10T12:39:37.758Z,10.50
2019-03-10T12:43:46.056Z,10.60
2019-03-10T12:47:54.285Z,10.70
2019-03-10T12:52:02.531Z,10.60
2019-03-10T12:56:10.788Z,10.50
2019-03-10T13:00:18.997Z,10.40
2019-03-10T13:04:27.276Z,10.40
2019-03-10T13:08:35.561Z,10.30
2019-03-10T13:12:43.822Z,10.20
2019-03-10T13:16:52.094Z,10.40
2019-03-10T13:21:00.378Z,10.50
2019-03-10T13:25:08.692Z,10.70
2019-03-10T13:29:16.890Z,10.80
2019-03-10T13:33:25.215Z,10.80
2019-03-10T13:37:33.492Z,10.60
2019-03-10T13:41:41.836Z,10.40
2019-03-10T13:45:50.124Z,10.40
2019-03-10T13:49:58.375Z,10.30
2019-03-10T13:54:06.813Z,10.20
2019-03-10T13:58:15.097Z,10.10
2019-03-10T14:02:23.413Z,10.00
2019-03-10T14:10:39.756Z,9.80
2019-03-10T14:18:56.001Z,9.50
2019-03-10T14:23:04.301Z,9.30
2019-03-10T14:27:12.550Z,9.20
2019-03-10T14:31:20.781Z,9.10
2019-03-10T14:35:29.003Z,9.10
2019-03-10T14:39:37.217Z,9.00
2019-03-10T14:43:45.475Z,9.00
2019-03-10T14:47:53.705Z,8.90
2019-03-10T14:52:01.960Z,8.90
2019-03-10T14:56:10.268Z,8.90
2019-03-10T15:00:20.109Z,8.90
2019-03-10T15:08:36.353Z,8.70
2019-03-10T15:12:44.630Z,8.70
2019-03-10T15:16:52.965Z,8.60
2019-03-10T15:21:01.209Z,8.60
2019-03-10T15:25:10.509Z,8.60
2019-03-10T15:29:18.791Z,8.60
2019-03-10T15:33:27.080Z,8.50
2019-03-10T15:37:35.317Z,8.30
2019-03-10T15:41:43.549Z,8.20
2019-03-10T15:45:51.773Z,8.10
2019-03-10T15:50:00.076Z,8.00
2019-03-10T15:54:08.317Z,8.00
2019-03-10T15:58:16.537Z,7.80
2019-03-10T16:02:24.805Z,7.70
2019-03-10T16:06:33.040Z,7.40
2019-03-10T16:10:41.270Z,7.10
2019-03-10T16:14:49.523Z,7.10
2019-03-10T16:18:57.768Z,6.90
2019-03-10T16:23:05.949Z,6.80
2019-03-10T16:27:14.214Z,6.60
2019-03-10T16:31:22.449Z,6.50
2019-03-10T16:35:30.668Z,6.30
2019-03-10T16:39:38.918Z,6.30
2019-03-10T16:43:47.134Z,6.30
2019-03-10T16:47:57.445Z,6.30
2019-03-10T16:56:11.785Z,6.20
2019-03-10T17:00:21.010Z,6.20
2019-03-10T17:04:29.399Z,6.10
2019-03-10T17:08:37.648Z,6.00
2019-03-10T17:12:45.911Z,6.00
2019-03-10T17:16:54.148Z,6.00
2019-03-10T17:25:10.504Z,6.10
2019-03-10T17:29:18.756Z,6.20
2019-03-10T17:33:27.097Z,6.10
2019-03-10T17:37:35.353Z,6.20
2019-03-10T17:41:43.561Z,6.10
2019-03-10T17:45:51.822Z,6.10
2019-03-10T17:50:00.017Z,6.00
2019-03-10T17:54:08.233Z,6.10
2019-03-10T18:02:24.525Z,6.10
2019-03-10T18:06:32.746Z,6.10
2019-03-10T18:10:41.025Z,6.20
2019-03-10T18:14:49.293Z,6.10
2019-03-10T18:18:57.533Z,6.00
2019-03-10T18:23:05.829Z,6.00
2019-03-10T18:27:14.049Z,5.90
2019-03-10T18:31:22.328Z,5.90
2019-03-10T18:35:30.559Z,5.90
2019-03-10T18:39:38.821Z,5.90
2019-03-10T18:43:47.055Z,6.00
2019-03-10T18:47:55.252Z,5.90
2019-03-10T18:52:03.493Z,5.90
2019-03-10T18:56:11.788Z,5.80
2019-03-10T19:00:21.509Z,5.70
2019-03-10T19:04:29.814Z,5.70
2019-03-10T19:08:38.004Z,5.60
2019-03-10T19:12:46.344Z,5.60
2019-03-10T19:21:02.668Z,5.50
2019-03-10T19:25:11.014Z,5.50
2019-03-10T19:29:19.241Z,5.50
2019-03-10T19:33:27.525Z,5.50
2019-03-10T19:37:35.813Z,5.40
2019-03-10T19:41:44.080Z,5.50
2019-03-10T19:45:52.436Z,5.50
2019-03-10T19:50:00.688Z,5.60
2019-03-10T19:54:08.958Z,5.60
2019-03-10T19:58:17.243Z,5.60
2019-03-10T20:02:25.516Z,5.40
2019-03-10T20:06:33.734Z,4.60
2019-03-10T20:10:41.917Z,4.00
2019-03-10T20:14:50.209Z,3.70
2019-03-10T20:18:58.486Z,3.60
2019-03-10T20:23:06.828Z,3.80
2019-03-10T20:27:15.063Z,3.70
2019-03-10T20:31:23.296Z,3.80
2019-03-10T20:35:31.620Z,3.90
2019-03-10T20:39:39.913Z,3.90
2019-03-10T20:43:48.173Z,3.90
2019-03-10T20:47:56.978Z,4.00
2019-03-10T20:52:04.765Z,4.00
2019-03-10T20:56:13.090Z,3.90
2019-03-10T21:00:21.339Z,3.90
2019-03-10T21:04:29.599Z,3.90
2019-03-10T21:08:37.866Z,4.00
2019-03-10T21:12:46.183Z,4.10
2019-03-10T21:16:54.706Z,4.00
2019-03-10T21:21:02.909Z,4.00
2019-03-10T21:29:20.100Z,4.10
2019-03-10T21:33:28.380Z,4.00
2019-03-10T21:37:36.577Z,4.00
2019-03-10T21:41:44.806Z,4.00
2019-03-10T21:45:53.053Z,4.00
2019-03-10T21:54:09.290Z,4.10
2019-03-10T21:58:17.584Z,4.10
2019-03-10T22:02:25.793Z,4.20
2019-03-10T22:06:34.073Z,4.20
2019-03-10T22:10:42.364Z,4.20
2019-03-10T22:14:50.622Z,4.20
2019-03-10T22:18:58.845Z,4.20
2019-03-10T22:23:07.069Z,4.30
2019-03-10T22:27:15.304Z,4.30
2019-03-10T22:31:23.603Z,4.30
2019-03-10T22:35:31.824Z,4.30
2019-03-10T22:39:40.084Z,4.30
2019-03-10T22:43:48.289Z,4.30
2019-03-10T22:47:56.575Z,4.30
2019-03-10T22:52:04.834Z,4.40
2019-03-10T22:56:13.728Z,4.40
2019-03-10T23:00:22.050Z,4.60
2019-03-10T23:04:30.302Z,4.60
2019-03-10T23:08:38.498Z,4.70
2019-03-10T23:12:46.727Z,4.70
2019-03-10T23:16:54.958Z,5.00
2019-03-10T23:21:03.215Z,5.10
2019-03-10T23:25:11.428Z,5.10
2019-03-10T23:29:19.671Z,5.10
2019-03-10T23:33:27.950Z,5.00
2019-03-10T23:37:36.199Z,4.80
2019-03-10T23:41:44.375Z,4.70
2019-03-10T23:45:52.573Z,4.70
2019-03-10T23:50:00.833Z,4.70
2019-03-10T23:54:09.106Z,4.70
2019-03-10T23:58:17.341Z,4.70
